Dana Pride — WE00 — position and weather

sailwx.info

Track history (hours):
 
Tides and Currents Weather Stations Pressure Air Temp Water Temp Dewpoint Dewpoint Depression Visibility Wind Speed Wind Dir Waves Ship Positions

Dana Pride

Last reported at 2018-Apr-26 01:22 UTC. Time now 2018-Apr-26 01:40 UTC.
Position N 33°28' W 117°42'.

Type: Fishing. MMSI: 366849310.

Date/timePositionNaut miles runAvg speedWind from/ knotsBaromVisibWave heightAir tempDewpointWater temp
2018-Apr-26 01:22N 33°28' W 117°42'0 0.0
2018-Apr-26 00:56N 33°28' W 117°42'0 0.0
2018-Apr-26 00:29N 33°28' W 117°42'0 0.0
2018-Apr-26 00:01N 33°28' W 117°42'0 0.0
2018-Apr-25 23:30N 33°28' W 117°42'0 0.0
2018-Apr-25 22:55N 33°28' W 117°42'0 0.0
2018-Apr-25 22:22N 33°28' W 117°42'0 0.0
2018-Apr-25 22:00N 33°28' W 117°42'0 0.0
2018-Apr-25 21:22N 33°28' W 117°42'0 0.0
2018-Apr-25 21:00N 33°28' W 117°42'0 0.0
2018-Apr-25 20:28N 33°28' W 117°42'0 0.0
2018-Apr-25 20:00N 33°28' W 117°42'0 0.0
2018-Apr-25 19:30N 33°28' W 117°42'0 0.0
2018-Apr-25 18:59N 33°28' W 117°42'0 0.0
2018-Apr-25 18:30N 33°28' W 117°42'0 0.0
2018-Apr-25 18:00N 33°28' W 117°42'0 0.0
2018-Apr-25 17:29N 33°28' W 117°42'0 0.0
2018-Apr-25 17:00N 33°28' W 117°42'0 0.0
2018-Apr-25 15:01N 33°28' W 117°42'0 0.0
2018-Apr-25 15:00N 33°28' W 117°42'0 0.0
2018-Apr-25 14:00N 33°28' W 117°42'0 0.0
2018-Apr-25 12:53N 33°28' W 117°42'0 0.0
2018-Apr-25 12:30N 33°28' W 117°42'0 0.0
2018-Apr-25 11:49N 33°28' W 117°42'0 0.0
2018-Apr-25 11:30N 33°28' W 117°42'0 0.0
2018-Apr-25 11:00N 33°28' W 117°42'0 0.0
2018-Apr-25 10:30N 33°28' W 117°42'0 0.0
2018-Apr-25 10:00N 33°28' W 117°42'0 0.0
2018-Apr-25 09:29N 33°28' W 117°42'0 0.0
2018-Apr-25 08:55N 33°28' W 117°42'0 0.0
2018-Apr-25 08:30N 33°28' W 117°42'0 0.0
2018-Apr-25 07:56N 33°28' W 117°42'0 0.0
2018-Apr-25 07:19N 33°28' W 117°42'0 0.0
2018-Apr-25 06:59N 33°28' W 117°42'0 0.0
2018-Apr-25 06:30N 33°28' W 117°42'0 0.0
2018-Apr-25 06:00N 33°28' W 117°42'0 0.0
2018-Apr-25 05:30N 33°28' W 117°42'0 0.0
2018-Apr-25 05:00N 33°28' W 117°42'0 0.0
2018-Apr-25 04:14N 33°28' W 117°42'0 0.0
2018-Apr-25 04:00N 33°28' W 117°42'0 0.0
2018-Apr-25 03:30N 33°28' W 117°42'0 0.0
2018-Apr-25 03:00N 33°28' W 117°42'0 0.0
2018-Apr-25 02:30N 33°28' W 117°42'0 0.0
2018-Apr-25 02:00N 33°28' W 117°42'0 0.0
2018-Apr-25 00:56N 33°28' W 117°42'0 0.0
2018-Apr-25 00:30N 33°28' W 117°42'0 0.0
2018-Apr-25 00:00N 33°28' W 117°42'0 0.0
2018-Apr-24 23:28N 33°28' W 117°42'3 5.7
2018-Apr-24 22:58N 33°25' W 117°41'1 1.2
2018-Apr-24 22:30N 33°25' W 117°41'5 8.9
2018-Apr-24 22:00N 33°23' W 117°37'4 8.8
2018-Apr-24 21:30N 33°26' W 117°40'2 3.3
2018-Apr-24 20:50N 33°27' W 117°42'0 0.9
2018-Apr-24 20:29N 33°27' W 117°42'1 1.9
2018-Apr-24 20:00N 33°26' W 117°42'1 1.7
2018-Apr-24 19:10N 33°28' W 117°42'3 6.0
2018-Apr-24 18:44N 33°25' W 117°41'0 1.3
2018-Apr-24 18:30N 33°25' W 117°41'3 5.7
2018-Apr-24 18:00N 33°24' W 117°38'4 7.4
2018-Apr-24 17:29N 33°26' W 117°41'1 1.8
2018-Apr-24 16:40N 33°28' W 117°42'0 0.0
2018-Apr-24 16:30N 33°28' W 117°42'0 0.0
2018-Apr-24 16:00N 33°28' W 117°42'0 0.0
2018-Apr-23 02:00N 33°28' W 117°42'4 7.2
2018-Apr-23 01:29N 33°29' W 117°45'1 0.9
2018-Apr-23 00:52N 33°30' W 117°45'2 4.3
2018-Apr-23 00:30N 33°28' W 117°44'2 4.1
2018-Apr-23 00:00N 33°28' W 117°42'0 0.0
2018-Apr-22 23:30N 33°28' W 117°42'1 1.9
2018-Apr-22 23:00N 33°27' W 117°42'2 3.1
2018-Apr-22 22:30N 33°26' W 117°40'2 3.3
2018-Apr-22 22:00N 33°27' W 117°42'1 2.3
2018-Apr-22 21:30N 33°27' W 117°43'1 2.0
2018-Apr-22 21:00N 33°28' W 117°42'5 9.3
2018-Apr-22 20:30N 33°25' W 117°37'1 3.0
2018-Apr-22 20:00N 33°25' W 117°39'1 1.8
2018-Apr-22 19:30N 33°26' W 117°40'2 4.9
2018-Apr-22 19:00N 33°28' W 117°42'4 8.6
2018-Apr-22 18:30N 33°24' W 117°38'2 4.8
2018-Apr-22 18:00N 33°22' W 117°36'3 5.5
2018-Apr-22 17:30N 33°24' W 117°39'4 7.8
2018-Apr-22 17:00N 33°28' W 117°42'0 0.0
2018-Apr-22 16:30N 33°28' W 117°42'0 0.0
2018-Apr-22 16:00N 33°28' W 117°42'0 0.0
2018-Apr-22 15:30N 33°28' W 117°42'0 0.0
2018-Apr-22 15:00N 33°28' W 117°42'0 0.0
2018-Apr-22 14:30N 33°28' W 117°42'0 0.0
2018-Apr-22 14:00N 33°28' W 117°42'0 0.0
2018-Apr-22 13:30N 33°28' W 117°42'0 0.0
2018-Apr-22 12:59N 33°28' W 117°42'0 0.0
2018-Apr-22 12:30N 33°28' W 117°42'0 0.0
2018-Apr-22 12:00N 33°28' W 117°42'0 0.0
2018-Apr-22 11:29N 33°28' W 117°42'0 0.0
2018-Apr-22 11:00N 33°28' W 117°42'0 0.0
2018-Apr-22 10:30N 33°28' W 117°42'0 0.0
2018-Apr-22 10:00N 33°28' W 117°42'0 0.0
2018-Apr-22 09:30N 33°28' W 117°42'0 0.0
2018-Apr-22 09:00N 33°28' W 117°42'0 0.0
2018-Apr-22 08:30N 33°28' W 117°42'0 0.0
2018-Apr-22 08:00N 33°28' W 117°42'0 0.0
2018-Apr-22 07:30N 33°28' W 117°42'0 0.0
2018-Apr-22 07:00N 33°28' W 117°42'0 0.0
2018-Apr-22 06:30N 33°28' W 117°42'0 0.0
2018-Apr-22 06:00N 33°28' W 117°42'0 0.0
2018-Apr-22 05:30N 33°28' W 117°42'0 0.0
2018-Apr-22 05:00N 33°28' W 117°42'0 0.0
2018-Apr-22 04:28N 33°28' W 117°42'0 0.0
2018-Apr-22 04:00N 33°28' W 117°42'0 0.0
2018-Apr-22 03:30N 33°28' W 117°42'0 0.0
2018-Apr-22 03:00N 33°28' W 117°42'0 0.0
2018-Apr-22 02:30N 33°28' W 117°42'0 0.0
2018-Apr-22 02:00N 33°28' W 117°42'2 4.7
2018-Apr-22 01:30N 33°25' W 117°42'4 7.2
2018-Apr-22 01:00N 33°28' W 117°44'2 3.3
2018-Apr-22 00:30N 33°27' W 117°43'1 1.8
2018-Apr-22 00:00N 33°28' W 117°42'3 5.5
2018-Apr-21 23:30N 33°26' W 117°39'2 3.7
2018-Apr-21 23:00N 33°24' W 117°38'4 7.2
2018-Apr-21 22:30N 33°21' W 117°35'5 9.6
2018-Apr-21 22:00N 33°25' W 117°39'2 4.0
2018-Apr-21 21:30N 33°26' W 117°41'1 2.7
2018-Apr-21 20:59N 33°27' W 117°42'5 9.6
2018-Apr-21 20:30N 33°24' W 117°38'3 5.7
2018-Apr-21 20:00N 33°26' W 117°40'3 5.0
2018-Apr-21 19:30N 33°26' W 117°43'2 3.4
2018-Apr-21 18:59N 33°28' W 117°42'3 5.5
2018-Apr-21 18:30N 33°29' W 117°44'2 4.9
2018-Apr-21 18:00N 33°31' W 117°46'4 7.9
2018-Apr-21 17:30N 33°27' W 117°44'2 3.7
2018-Apr-21 17:00N 33°28' W 117°42'0 0.0
2018-Apr-21 16:30N 33°28' W 117°42'0 0.0
2018-Apr-21 16:00N 33°28' W 117°42'0 0.0
2018-Apr-21 15:30N 33°28' W 117°42'0 0.0
2018-Apr-21 15:00N 33°28' W 117°42'0 0.0
2018-Apr-21 14:30N 33°28' W 117°42'0 0.0
2018-Apr-21 13:57N 33°28' W 117°42'0 0.0
2018-Apr-21 13:28N 33°28' W 117°42'0 0.0
2018-Apr-21 12:58N 33°28' W 117°42'0 0.0
2018-Apr-21 12:30N 33°28' W 117°42'0 0.0
2018-Apr-21 12:00N 33°28' W 117°42'0 0.0
2018-Apr-21 11:30N 33°28' W 117°42'0 0.0
2018-Apr-21 11:00N 33°28' W 117°42'0 0.0
2018-Apr-21 10:30N 33°28' W 117°42'0 0.0
2018-Apr-21 10:00N 33°28' W 117°42'0 0.0
2018-Apr-21 09:30N 33°28' W 117°42'0 0.0
2018-Apr-21 09:00N 33°28' W 117°42'0 0.0
2018-Apr-21 08:30N 33°28' W 117°42'0 0.0
2018-Apr-21 07:58N 33°28' W 117°42'0 0.0
2018-Apr-21 07:30N 33°28' W 117°42'0 0.0
2018-Apr-21 07:00N 33°28' W 117°42'0 0.0
2018-Apr-21 06:30N 33°28' W 117°42'0 0.0
2018-Apr-21 06:00N 33°28' W 117°42'0 0.0
2018-Apr-21 05:30N 33°28' W 117°42'0 0.0
2018-Apr-21 05:00N 33°28' W 117°42'0 0.0
2018-Apr-21 04:30N 33°28' W 117°42'0 0.0
2018-Apr-21 04:00N 33°28' W 117°42'0 0.0
2018-Apr-21 03:30N 33°28' W 117°42'0 0.0
2018-Apr-21 02:45N 33°28' W 117°42'0 0.0
2018-Apr-21 02:30N 33°28' W 117°42'0 0.0
2018-Apr-21 02:00N 33°28' W 117°42'0 0.0
2018-Apr-21 01:30N 33°28' W 117°42'0 0.0
2018-Apr-21 01:00N 33°28' W 117°42'3 5.6
2018-Apr-21 00:30N 33°29' W 117°45'1 2.4
2018-Apr-20 23:58N 33°28' W 117°43'1 2.6
2018-Apr-20 23:30N 33°27' W 117°42'1 1.0
2018-Apr-20 23:00N 33°28' W 117°42'3 6.6
2018-Apr-20 22:30N 33°25' W 117°39'2 3.9
2018-Apr-20 22:00N 33°23' W 117°38'4 8.2
2018-Apr-20 21:30N 33°27' W 117°41'1 2.1
2018-Apr-20 20:59N 33°27' W 117°42'2 3.8
2018-Apr-20 20:30N 33°26' W 117°40'1 1.9
2018-Apr-20 19:57N 33°27' W 117°41'1 1.7
2018-Apr-20 19:30N 33°26' W 117°40'2 3.0
2018-Apr-20 18:58N 33°27' W 117°42'4 6.9
2018-Apr-20 18:26N 33°30' W 117°45'1 2.6
2018-Apr-20 18:00N 33°29' W 117°46'3 4.2
2018-Apr-20 17:24N 33°28' W 117°43'2 4.1
2018-Apr-20 17:00N 33°28' W 117°42'0 0.0
2018-Apr-20 16:30N 33°28' W 117°42'0 0.0
2018-Apr-20 16:00N 33°28' W 117°42'  
Track history (hours):
 
Tides and Currents Weather Stations Pressure Air Temp Water Temp Dewpoint Dewpoint Depression Visibility Wind Speed Wind Dir Waves Ship Positions

Dana Pride

Last reported at 2018-Apr-26 01:22 UTC. Time now 2018-Apr-26 01:40 UTC.
Position N 33°28' W 117°42'.

Type: Fishing. MMSI: 366849310.

Date/timePositionNaut miles runAvg speedWind from/ knotsBaromVisibWave heightAir tempDewpointWater temp
2018-Apr-26 01:22N 33°28' W 117°42'0 0.0
2018-Apr-26 00:56N 33°28' W 117°42'0 0.0
2018-Apr-26 00:29N 33°28' W 117°42'0 0.0
2018-Apr-26 00:01N 33°28' W 117°42'0 0.0
2018-Apr-25 23:30N 33°28' W 117°42'0 0.0
2018-Apr-25 22:55N 33°28' W 117°42'0 0.0
2018-Apr-25 22:22N 33°28' W 117°42'0 0.0
2018-Apr-25 22:00N 33°28' W 117°42'0 0.0
2018-Apr-25 21:22N 33°28' W 117°42'0 0.0
2018-Apr-25 21:00N 33°28' W 117°42'0 0.0
2018-Apr-25 20:28N 33°28' W 117°42'0 0.0
2018-Apr-25 20:00N 33°28' W 117°42'0 0.0
2018-Apr-25 19:30N 33°28' W 117°42'0 0.0
2018-Apr-25 18:59N 33°28' W 117°42'0 0.0
2018-Apr-25 18:30N 33°28' W 117°42'0 0.0
2018-Apr-25 18:00N 33°28' W 117°42'0 0.0
2018-Apr-25 17:29N 33°28' W 117°42'0 0.0
2018-Apr-25 17:00N 33°28' W 117°42'0 0.0
2018-Apr-25 15:01N 33°28' W 117°42'0 0.0
2018-Apr-25 15:00N 33°28' W 117°42'0 0.0
2018-Apr-25 14:00N 33°28' W 117°42'0 0.0
2018-Apr-25 12:53N 33°28' W 117°42'0 0.0
2018-Apr-25 12:30N 33°28' W 117°42'0 0.0
2018-Apr-25 11:49N 33°28' W 117°42'0 0.0
2018-Apr-25 11:30N 33°28' W 117°42'0 0.0
2018-Apr-25 11:00N 33°28' W 117°42'0 0.0
2018-Apr-25 10:30N 33°28' W 117°42'0 0.0
2018-Apr-25 10:00N 33°28' W 117°42'0 0.0
2018-Apr-25 09:29N 33°28' W 117°42'0 0.0
2018-Apr-25 08:55N 33°28' W 117°42'0 0.0
2018-Apr-25 08:30N 33°28' W 117°42'0 0.0
2018-Apr-25 07:56N 33°28' W 117°42'0 0.0
2018-Apr-25 07:19N 33°28' W 117°42'0 0.0
2018-Apr-25 06:59N 33°28' W 117°42'0 0.0
2018-Apr-25 06:30N 33°28' W 117°42'0 0.0
2018-Apr-25 06:00N 33°28' W 117°42'0 0.0
2018-Apr-25 05:30N 33°28' W 117°42'0 0.0
2018-Apr-25 05:00N 33°28' W 117°42'0 0.0
2018-Apr-25 04:14N 33°28' W 117°42'0 0.0
2018-Apr-25 04:00N 33°28' W 117°42'0 0.0
2018-Apr-25 03:30N 33°28' W 117°42'0 0.0
2018-Apr-25 03:00N 33°28' W 117°42'0 0.0
2018-Apr-25 02:30N 33°28' W 117°42'0 0.0
2018-Apr-25 02:00N 33°28' W 117°42'0 0.0
2018-Apr-25 00:56N 33°28' W 117°42'0 0.0
2018-Apr-25 00:30N 33°28' W 117°42'0 0.0
2018-Apr-25 00:00N 33°28' W 117°42'0 0.0
2018-Apr-24 23:28N 33°28' W 117°42'3 5.7
2018-Apr-24 22:58N 33°25' W 117°41'1 1.2
2018-Apr-24 22:30N 33°25' W 117°41'5 8.9
2018-Apr-24 22:00N 33°23' W 117°37'4 8.8
2018-Apr-24 21:30N 33°26' W 117°40'2 3.3
2018-Apr-24 20:50N 33°27' W 117°42'0 0.9
2018-Apr-24 20:29N 33°27' W 117°42'1 1.9
2018-Apr-24 20:00N 33°26' W 117°42'1 1.7
2018-Apr-24 19:10N 33°28' W 117°42'3 6.0
2018-Apr-24 18:44N 33°25' W 117°41'0 1.3
2018-Apr-24 18:30N 33°25' W 117°41'3 5.7
2018-Apr-24 18:00N 33°24' W 117°38'4 7.4
2018-Apr-24 17:29N 33°26' W 117°41'1 1.8
2018-Apr-24 16:40N 33°28' W 117°42'0 0.0
2018-Apr-24 16:30N 33°28' W 117°42'0 0.0
2018-Apr-24 16:00N 33°28' W 117°42'0 0.0
2018-Apr-23 02:00N 33°28' W 117°42'4 7.2
2018-Apr-23 01:29N 33°29' W 117°45'1 0.9
2018-Apr-23 00:52N 33°30' W 117°45'2 4.3
2018-Apr-23 00:30N 33°28' W 117°44'2 4.1
2018-Apr-23 00:00N 33°28' W 117°42'0 0.0
2018-Apr-22 23:30N 33°28' W 117°42'1 1.9
2018-Apr-22 23:00N 33°27' W 117°42'2 3.1
2018-Apr-22 22:30N 33°26' W 117°40'2 3.3
2018-Apr-22 22:00N 33°27' W 117°42'1 2.3
2018-Apr-22 21:30N 33°27' W 117°43'1 2.0
2018-Apr-22 21:00N 33°28' W 117°42'5 9.3
2018-Apr-22 20:30N 33°25' W 117°37'1 3.0
2018-Apr-22 20:00N 33°25' W 117°39'1 1.8
2018-Apr-22 19:30N 33°26' W 117°40'2 4.9
2018-Apr-22 19:00N 33°28' W 117°42'4 8.6
2018-Apr-22 18:30N 33°24' W 117°38'2 4.8
2018-Apr-22 18:00N 33°22' W 117°36'3 5.5
2018-Apr-22 17:30N 33°24' W 117°39'4 7.8
2018-Apr-22 17:00N 33°28' W 117°42'0 0.0
2018-Apr-22 16:30N 33°28' W 117°42'0 0.0
2018-Apr-22 16:00N 33°28' W 117°42'0 0.0
2018-Apr-22 15:30N 33°28' W 117°42'0 0.0
2018-Apr-22 15:00N 33°28' W 117°42'0 0.0
2018-Apr-22 14:30N 33°28' W 117°42'0 0.0
2018-Apr-22 14:00N 33°28' W 117°42'0 0.0
2018-Apr-22 13:30N 33°28' W 117°42'0 0.0
2018-Apr-22 12:59N 33°28' W 117°42'0 0.0
2018-Apr-22 12:30N 33°28' W 117°42'0 0.0
2018-Apr-22 12:00N 33°28' W 117°42'0 0.0
2018-Apr-22 11:29N 33°28' W 117°42'0 0.0
2018-Apr-22 11:00N 33°28' W 117°42'0 0.0
2018-Apr-22 10:30N 33°28' W 117°42'0 0.0
2018-Apr-22 10:00N 33°28' W 117°42'0 0.0
2018-Apr-22 09:30N 33°28' W 117°42'0 0.0
2018-Apr-22 09:00N 33°28' W 117°42'0 0.0
2018-Apr-22 08:30N 33°28' W 117°42'0 0.0
2018-Apr-22 08:00N 33°28' W 117°42'0 0.0
2018-Apr-22 07:30N 33°28' W 117°42'0 0.0
2018-Apr-22 07:00N 33°28' W 117°42'0 0.0
2018-Apr-22 06:30N 33°28' W 117°42'0 0.0
2018-Apr-22 06:00N 33°28' W 117°42'0 0.0
2018-Apr-22 05:30N 33°28' W 117°42'0 0.0
2018-Apr-22 05:00N 33°28' W 117°42'0 0.0
2018-Apr-22 04:28N 33°28' W 117°42'0 0.0
2018-Apr-22 04:00N 33°28' W 117°42'0 0.0
2018-Apr-22 03:30N 33°28' W 117°42'0 0.0
2018-Apr-22 03:00N 33°28' W 117°42'0 0.0
2018-Apr-22 02:30N 33°28' W 117°42'0 0.0
2018-Apr-22 02:00N 33°28' W 117°42'2 4.7
2018-Apr-22 01:30N 33°25' W 117°42'4 7.2
2018-Apr-22 01:00N 33°28' W 117°44'2 3.3
2018-Apr-22 00:30N 33°27' W 117°43'1 1.8
2018-Apr-22 00:00N 33°28' W 117°42'3 5.5
2018-Apr-21 23:30N 33°26' W 117°39'2 3.7
2018-Apr-21 23:00N 33°24' W 117°38'4 7.2
2018-Apr-21 22:30N 33°21' W 117°35'5 9.6
2018-Apr-21 22:00N 33°25' W 117°39'2 4.0
2018-Apr-21 21:30N 33°26' W 117°41'1 2.7
2018-Apr-21 20:59N 33°27' W 117°42'5 9.6
2018-Apr-21 20:30N 33°24' W 117°38'3 5.7
2018-Apr-21 20:00N 33°26' W 117°40'3 5.0
2018-Apr-21 19:30N 33°26' W 117°43'2 3.4
2018-Apr-21 18:59N 33°28' W 117°42'3 5.5
2018-Apr-21 18:30N 33°29' W 117°44'2 4.9
2018-Apr-21 18:00N 33°31' W 117°46'4 7.9
2018-Apr-21 17:30N 33°27' W 117°44'2 3.7
2018-Apr-21 17:00N 33°28' W 117°42'0 0.0
2018-Apr-21 16:30N 33°28' W 117°42'0 0.0
2018-Apr-21 16:00N 33°28' W 117°42'0 0.0
2018-Apr-21 15:30N 33°28' W 117°42'0 0.0
2018-Apr-21 15:00N 33°28' W 117°42'0 0.0
2018-Apr-21 14:30N 33°28' W 117°42'0 0.0
2018-Apr-21 13:57N 33°28' W 117°42'0 0.0
2018-Apr-21 13:28N 33°28' W 117°42'0 0.0
2018-Apr-21 12:58N 33°28' W 117°42'0 0.0
2018-Apr-21 12:30N 33°28' W 117°42'0 0.0
2018-Apr-21 12:00N 33°28' W 117°42'0 0.0
2018-Apr-21 11:30N 33°28' W 117°42'0 0.0
2018-Apr-21 11:00N 33°28' W 117°42'0 0.0
2018-Apr-21 10:30N 33°28' W 117°42'0 0.0
2018-Apr-21 10:00N 33°28' W 117°42'0 0.0
2018-Apr-21 09:30N 33°28' W 117°42'0 0.0
2018-Apr-21 09:00N 33°28' W 117°42'0 0.0
2018-Apr-21 08:30N 33°28' W 117°42'0 0.0
2018-Apr-21 07:58N 33°28' W 117°42'0 0.0
2018-Apr-21 07:30N 33°28' W 117°42'0 0.0
2018-Apr-21 07:00N 33°28' W 117°42'0 0.0
2018-Apr-21 06:30N 33°28' W 117°42'0 0.0
2018-Apr-21 06:00N 33°28' W 117°42'0 0.0
2018-Apr-21 05:30N 33°28' W 117°42'0 0.0
2018-Apr-21 05:00N 33°28' W 117°42'0 0.0
2018-Apr-21 04:30N 33°28' W 117°42'0 0.0
2018-Apr-21 04:00N 33°28' W 117°42'0 0.0
2018-Apr-21 03:30N 33°28' W 117°42'0 0.0
2018-Apr-21 02:45N 33°28' W 117°42'0 0.0
2018-Apr-21 02:30N 33°28' W 117°42'0 0.0
2018-Apr-21 02:00N 33°28' W 117°42'0 0.0
2018-Apr-21 01:30N 33°28' W 117°42'0 0.0
2018-Apr-21 01:00N 33°28' W 117°42'3 5.6
2018-Apr-21 00:30N 33°29' W 117°45'1 2.4
2018-Apr-20 23:58N 33°28' W 117°43'1 2.6
2018-Apr-20 23:30N 33°27' W 117°42'1 1.0
2018-Apr-20 23:00N 33°28' W 117°42'3 6.6
2018-Apr-20 22:30N 33°25' W 117°39'2 3.9
2018-Apr-20 22:00N 33°23' W 117°38'4 8.2
2018-Apr-20 21:30N 33°27' W 117°41'1 2.1
2018-Apr-20 20:59N 33°27' W 117°42'2 3.8
2018-Apr-20 20:30N 33°26' W 117°40'1 1.9
2018-Apr-20 19:57N 33°27' W 117°41'1 1.7
2018-Apr-20 19:30N 33°26' W 117°40'2 3.0
2018-Apr-20 18:58N 33°27' W 117°42'4 6.9
2018-Apr-20 18:26N 33°30' W 117°45'1 2.6
2018-Apr-20 18:00N 33°29' W 117°46'3 4.2
2018-Apr-20 17:24N 33°28' W 117°43'2 4.1
2018-Apr-20 17:00N 33°28' W 117°42'0 0.0
2018-Apr-20 16:30N 33°28' W 117°42'0 0.0
2018-Apr-20 16:00N 33°28' W 117°42'  

Dump ship's entire track history